Time;durP1;ratioP1;P1;durP2;ratioP2;P2;SDS_P1;SDS_P2;PMS_P1;PMS_P2;Temp;Humidity;BMP_temperature;BMP_pressure;BME280_temperature;BME280_humidity;BME280_pressure;Samples;Min_cycle;Max_cycle;Signal;HPM_P1;HPM_P2
2021/03/21 00:07:55;1242081.00;4.14;2166.49;62959.00;0.21;109.59;;;;;8.20;1.00;;;;;;2278560;61;1412;-90
2021/03/21 00:10:21;293908.00;0.98;507.45;0.00;0.00;0.62;;;;;8.30;1.00;;;;;;2266333;61;1013;-91
2021/03/21 00:12:48;193876.00;0.65;335.38;21029.00;0.07;37.05;;;;;8.40;1.00;;;;;;2276725;61;1982;-92
2021/03/21 00:22:43;871759.00;2.91;1506.57;0.00;0.00;0.62;;;;;9.00;1.00;;;;;;2282620;60;1382;-90
2021/03/21 00:25:17;459838.00;1.53;792.71;0.00;0.00;0.62;;;;;9.20;1.00;;;;;;2280644;60;1049;-90
2021/03/21 00:27:43;152477.00;0.51;264.08;0.00;0.00;0.62;;;;;8.60;1.00;;;;;;2280171;60;1449;-90
2021/03/21 00:30:16;367988.00;1.23;634.78;0.00;0.00;0.62;;;;;8.90;1.00;;;;;;2272024;61;1001;-90
2021/03/21 00:32:42;508573.00;1.70;876.58;69235.00;0.23;120.44;;;;;8.40;1.00;;;;;;2262021;61;1994;-90
2021/03/21 00:37:40;493892.00;1.65;851.31;0.00;0.00;0.62;;;;;8.90;1.00;;;;;;2282296;60;1430;-90
2021/03/21 01:22:49;1037778.00;3.46;1799.50;737.00;0.00;1.90;;;;;9.60;1.00;;;;;;2282116;60;1219;-88
2021/03/21 01:27:43;688055.00;2.29;1186.53;0.00;0.00;0.62;;;;;9.60;1.00;;;;;;2282103;61;1413;-90
2021/03/21 01:32:38;623443.00;2.08;1074.72;0.00;0.00;0.62;;;;;10.00;1.00;;;;;;2274021;61;1969;-91
2021/03/21 02:15:24;854173.00;2.85;1475.77;0.00;0.00;0.62;;;;;8.20;1.00;;;;;;2277913;61;1245;-92
2021/03/21 02:18:04;166095.00;0.55;287.54;0.00;0.00;0.62;;;;;8.60;1.00;;;;;;2271623;61;1430;-88
2021/03/21 02:26:11;1022794.00;3.41;1772.88;0.00;0.00;0.62;;;;;9.20;1.00;;;;;;2277946;61;1427;-88
2021/03/21 03:04:26;614637.00;2.05;1059.50;0.00;0.00;0.62;;;;;9.60;1.00;;;;;;2273714;61;1445;-91
2021/03/21 03:26:58;861813.00;2.87;1489.15;0.00;0.00;0.62;;;;;10.70;1.00;;;;;;2278354;61;1426;-91
2021/03/21 03:29:32;300633.00;1.00;519.01;0.00;0.00;0.62;;;;;11.00;1.00;;;;;;2276856;61;1411;-92
2021/03/21 03:32:04;203920.00;0.68;352.67;0.00;0.00;0.62;;;;;11.00;1.00;;;;;;2276878;61;930;-90
2021/03/21 03:34:32;89352.00;0.30;155.19;0.00;0.00;0.62;;;;;10.40;1.00;;;;;;2273123;61;1908;-91
2021/03/21 03:39:29;1159708.00;3.87;2017.54;0.00;0.00;0.62;;;;;10.90;1.00;;;;;;2285593;60;1412;-89
2021/03/21 03:57:05;1090405.00;3.63;1893.27;75980.00;0.25;132.09;;;;;9.80;1.00;;;;;;2274528;61;1232;-89
2021/03/21 04:02:09;996801.00;3.32;1726.81;83365.00;0.28;144.85;;;;;10.30;1.00;;;;;;2274300;61;1399;-90
2021/03/21 04:07:16;1268861.00;4.23;2215.23;75833.00;0.25;131.84;;;;;10.20;1.00;;;;;;2278433;61;1367;-90
2021/03/21 04:09:52;371612.00;1.24;641.01;84377.00;0.28;146.60;;;;;9.80;1.00;;;;;;2272099;61;1405;-90
2021/03/21 04:12:27;509454.00;1.70;878.10;84398.00;0.28;146.63;;;;;9.50;1.00;;;;;;2272090;61;939;-89
2021/03/21 04:15:03;480512.00;1.60;828.28;77509.00;0.26;134.73;;;;;9.90;1.00;;;;;;2272083;61;1938;-91
2021/03/21 04:34:57;1283278.00;4.28;2241.53;0.00;0.00;0.62;;;;;10.00;1.00;;;;;;2282352;61;1964;-89
2021/03/21 04:42:39;1057543.00;3.53;1834.66;77782.00;0.26;135.21;;;;;10.20;1.00;;;;;;2307631;39;3599;-91
2021/03/21 05:38:46;1212171.00;4.04;2112.24;0.00;0.00;0.62;;;;;8.40;1.00;;;;;;2283806;61;1398;-91
2021/03/21 06:24:47;1022298.00;3.41;1772.00;0.00;0.00;0.62;;;;;6.10;1.00;;;;;;2273885;61;1374;-89
2021/03/21 06:27:43;77329.00;0.26;134.42;0.00;0.00;0.62;;;;;6.20;1.00;;;;;;2272374;61;940;-88
2021/03/21 06:35:16;923166.00;3.08;1596.84;0.00;0.00;0.62;;;;;5.80;1.00;;;;;;2274243;61;1903;-90
2021/03/21 06:40:47;399297.00;1.33;688.60;0.00;0.00;0.62;;;;;6.30;1.00;;;;;;2274429;61;1381;-86
2021/03/21 06:53:30;717616.00;2.39;1237.80;78263.00;0.26;136.04;;;;;7.70;1.00;;;;;;2273808;61;1966;-91
2021/03/21 07:01:22;791991.00;2.64;1367.16;0.00;0.00;0.62;;;;;7.30;1.00;;;;;;2271256;61;1020;-89
2021/03/21 07:11:45;865851.00;2.89;1496.22;84107.00;0.28;146.13;;;;;7.00;1.00;;;;;;2279626;61;1205;-89
2021/03/21 07:19:52;792676.00;2.64;1368.35;0.00;0.00;0.62;;;;;8.20;1.00;;;;;;2285678;61;1345;-91
2021/03/21 07:37:48;760710.00;2.54;1312.69;0.00;0.00;0.62;;;;;7.30;1.00;;;;;;2282596;61;1317;-90
2021/03/21 07:40:36;22332.00;0.07;39.31;0.00;0.00;0.62;;;;;7.40;1.00;;;;;;2268310;61;1358;-91
2021/03/21 07:46:04;388345.00;1.29;669.77;0.00;0.00;0.62;;;;;6.80;1.00;;;;;;2278715;61;1421;-90
2021/03/21 08:01:22;1706517.00;5.69;3038.09;0.00;0.00;0.62;;;;;7.50;1.00;;;;;;2278106;61;1234;-91
2021/03/21 09:46:41;1226312.00;4.09;2137.87;96788.00;0.32;168.03;;;;;7.80;1.00;;;;;;2319109;40;2120;-86
2021/03/21 09:54:30;1662708.00;5.54;2953.19;103369.00;0.34;179.39;;;;;7.20;1.00;;;;;;2257755;61;1970;-88
2021/03/21 09:59:45;673138.00;2.24;1160.69;0.00;0.00;0.62;;;;;7.60;1.00;;;;;;2260182;61;1421;-89
2021/03/21 13:16:09;13557.00;0.05;24.11;0.00;0.00;0.62;;;;;11.80;1.00;;;;;;2258974;61;977;-89
2021/03/21 13:55:39;57233.00;0.19;99.69;0.00;0.00;0.62;;;;;11.40;1.00;;;;;;2258758;61;1950;-90
2021/03/21 14:05:48;22164.00;0.07;39.02;0.00;0.00;0.62;;;;;10.50;1.00;;;;;;2258904;61;973;-90
2021/03/21 14:08:17;137197.00;0.46;237.74;0.00;0.00;0.62;;;;;10.20;1.00;;;;;;2252814;61;895;-87
2021/03/21 14:15:48;33312.00;0.11;58.32;0.00;0.00;0.62;;;;;10.00;1.00;;;;;;2266701;61;1900;-90
2021/03/21 14:23:13;18823.00;0.06;33.23;0.00;0.00;0.62;;;;;9.10;1.00;;;;;;2259070;61;1341;-89
2021/03/21 14:25:41;338155.00;1.13;583.50;66228.00;0.22;115.24;;;;;9.10;1.00;;;;;;2256710;61;910;-88
2021/03/21 14:33:07;6303.00;0.02;11.54;0.00;0.00;0.62;;;;;9.30;1.00;;;;;;2266722;61;1415;-89
2021/03/21 16:27:11;126374104.00;421.25;81769616.00;83330.00;0.28;144.79;;;;;12.60;1.00;;;;;;2497605;55;3691;31
2021/03/21 17:03:01;245298.00;0.82;423.86;0.00;0.00;0.62;;;;;11.80;1.00;;;;;;2262529;61;1235;-88
2021/03/21 17:05:29;377801.00;1.26;651.65;49619.00;0.17;86.53;;;;;11.80;1.00;;;;;;2263572;61;1013;-89
2021/03/21 17:07:57;108045.00;0.36;187.46;0.00;0.00;0.62;;;;;11.30;1.00;;;;;;2260216;61;981;-88
2021/03/21 17:10:27;182294.00;0.61;315.44;0.00;0.00;0.62;;;;;11.30;1.00;;;;;;2260203;61;1432;-88
2021/03/21 17:12:54;163980.00;0.55;283.90;0.00;0.00;0.62;;;;;11.10;1.00;;;;;;2248261;61;1050;-88
2021/03/21 17:15:22;0.00;0.00;0.62;0.00;0.00;0.62;;;;;10.60;1.00;;;;;;2248258;61;1975;-89
2021/03/21 17:17:48;27140.00;0.09;47.63;0.00;0.00;0.62;;;;;10.40;1.00;;;;;;2236387;62;1083;-88
2021/03/21 17:20:20;122534.00;0.41;212.45;0.00;0.00;0.62;;;;;10.80;1.00;;;;;;2233127;62;1351;-89
2021/03/21 17:22:46;186815.00;0.62;323.22;0.00;0.00;0.62;;;;;11.40;1.00;;;;;;2232422;62;1024;-89
2021/03/21 17:25:15;0.00;0.00;0.62;0.00;0.00;0.62;;;;;11.20;1.00;;;;;;2225374;62;1000;-88
2021/03/21 17:27:42;37357.00;0.12;65.32;0.00;0.00;0.62;;;;;11.20;1.00;;;;;;2228624;62;1080;-88
2021/03/21 17:30:12;42906.00;0.14;74.92;0.00;0.00;0.62;;;;;11.30;1.00;;;;;;2226598;62;1418;-89
2021/03/21 17:32:38;308751.00;1.03;532.96;0.00;0.00;0.62;;;;;11.10;1.00;;;;;;2228447;62;991;-87
2021/03/21 17:35:07;0.00;0.00;0.62;0.00;0.00;0.62;;;;;11.30;1.00;;;;;;2227694;62;2006;-89
2021/03/21 17:37:34;156183.00;0.52;270.46;0.00;0.00;0.62;;;;;11.00;1.00;;;;;;2224587;62;961;-89
2021/03/21 17:40:01;19268.00;0.06;34.00;0.00;0.00;0.62;;;;;11.00;1.00;;;;;;2224316;62;1442;-88
2021/03/21 17:42:27;242584.00;0.81;419.20;0.00;0.00;0.62;;;;;10.80;1.00;;;;;;2225154;62;1063;-88
2021/03/21 17:44:54;20313.00;0.07;35.81;0.00;0.00;0.62;;;;;11.40;1.00;;;;;;2231607;62;1011;-89
2021/03/21 17:47:20;28177.00;0.09;49.43;0.00;0.00;0.62;;;;;11.30;1.00;;;;;;2229513;62;1013;-87
2021/03/21 17:49:48;236295.00;0.79;408.38;0.00;0.00;0.62;;;;;10.90;1.00;;;;;;2236287;62;1381;-86
2021/03/21 17:52:23;74823.00;0.25;130.09;0.00;0.00;0.62;;;;;10.70;1.00;;;;;;2237883;61;1052;-88
2021/03/21 17:54:59;109577.00;0.37;190.10;0.00;0.00;0.62;;;;;10.50;1.00;;;;;;2244083;62;1997;-89
2021/03/21 17:57:26;296676.00;0.99;512.21;19587.00;0.07;34.55;;;;;10.60;1.00;;;;;;2234166;61;1000;-87
2021/03/21 17:59:53;22634.00;0.08;39.83;0.00;0.00;0.62;;;;;10.80;1.00;;;;;;2236192;62;1425;-88
2021/03/21 18:02:21;98313.00;0.33;170.66;0.00;0.00;0.62;;;;;10.50;1.00;;;;;;2231331;62;964;-86
2021/03/21 18:04:48;29142.00;0.10;51.10;0.00;0.00;0.62;;;;;10.50;1.00;;;;;;2229354;62;953;-89
2021/03/21 18:07:14;2026.00;0.01;4.13;0.00;0.00;0.62;;;;;10.70;1.00;;;;;;2232258;62;1049;-88
2021/03/21 18:09:42;377676.00;1.26;651.43;44127.00;0.15;77.03;;;;;11.10;1.00;;;;;;2232319;62;1363;-89
2021/03/21 18:12:11;86211.00;0.29;149.76;0.00;0.00;0.62;;;;;11.20;1.00;;;;;;2225962;62;1002;-89
2021/03/21 18:14:38;58989.00;0.20;102.73;0.00;0.00;0.62;;;;;11.10;1.00;;;;;;2237313;61;2002;-87
2021/03/21 18:17:05;38938.00;0.13;68.05;0.00;0.00;0.62;;;;;10.70;1.00;;;;;;2236711;61;981;-87
2021/03/21 18:19:32;64126.00;0.21;111.61;0.00;0.00;0.62;;;;;10.10;1.00;;;;;;2239616;61;1066;-87
2021/03/21 18:21:58;84398.00;0.28;146.63;0.00;0.00;0.62;;;;;9.70;1.00;;;;;;2238220;61;1302;-88
2021/03/21 18:24:25;173579.00;0.58;300.43;0.00;0.00;0.62;;;;;9.50;1.00;;;;;;2245163;61;1041;-88
2021/03/21 18:26:51;68641.00;0.23;119.41;0.00;0.00;0.62;;;;;9.40;1.00;;;;;;2252088;61;1044;-89
2021/03/21 18:29:18;70036.00;0.23;121.82;0.00;0.00;0.62;;;;;9.10;1.00;;;;;;2247981;61;946;-89
2021/03/21 18:31:45;1032.00;0.00;2.41;0.00;0.00;0.62;;;;;8.70;1.00;;;;;;2244043;61;1425;-87
2021/03/21 18:34:11;239323.00;0.80;413.59;68350.00;0.23;118.91;;;;;8.90;1.00;;;;;;2237898;61;1921;-89
2021/03/21 18:36:38;6266.00;0.02;11.48;0.00;0.00;0.62;;;;;9.50;1.00;;;;;;2248068;61;1007;-88
2021/03/21 18:39:06;148782.00;0.50;257.71;0.00;0.00;0.62;;;;;9.50;1.00;;;;;;2247973;61;982;-88
2021/03/21 18:41:32;38441.00;0.13;67.19;0.00;0.00;0.62;;;;;9.80;1.00;;;;;;2240501;62;1468;-88
2021/03/21 18:44:06;139348.00;0.46;241.45;0.00;0.00;0.62;;;;;9.40;1.00;;;;;;2244141;62;1010;-89
2021/03/21 18:46:34;63583.00;0.21;110.67;0.00;0.00;0.62;;;;;8.70;1.00;;;;;;2240715;62;942;-89
2021/03/21 18:49:00;240434.00;0.80;415.50;28976.00;0.10;50.81;;;;;8.10;1.00;;;;;;2236806;62;1014;-89
2021/03/21 18:51:27;75.00;0.00;0.75;0.00;0.00;0.62;;;;;8.70;1.00;;;;;;2228849;62;1391;-89
2021/03/21 18:53:55;219928.00;0.73;380.22;0.00;0.00;0.62;;;;;9.30;1.00;;;;;;2228957;62;2002;-87
2021/03/21 18:56:22;251558.00;0.84;434.63;8187.00;0.03;14.81;;;;;9.40;1.00;;;;;;2228979;62;1069;-88
2021/03/21 18:58:49;186584.00;0.62;322.83;0.00;0.00;0.62;;;;;9.70;1.00;;;;;;2223908;62;1139;-89
2021/03/21 19:01:43;146379.00;0.49;253.57;0.00;0.00;0.62;;;;;9.60;1.00;;;;;;2236831;62;1416;-88
2021/03/21 19:04:11;12967.00;0.04;23.09;0.00;0.00;0.62;;;;;9.30;1.00;;;;;;2235462;62;954;-90
2021/03/21 19:06:37;140695.00;0.47;243.77;0.00;0.00;0.62;;;;;8.70;1.00;;;;;;2232807;62;1070;-89
2021/03/21 19:09:07;36918.00;0.12;64.56;0.00;0.00;0.62;;;;;9.00;1.00;;;;;;2235499;62;1029;-89
2021/03/21 19:11:35;18143.00;0.06;32.05;0.00;0.00;0.62;;;;;8.80;1.00;;;;;;2235473;62;1335;-89
2021/03/21 19:14:02;0.00;0.00;0.62;0.00;0.00;0.62;;;;;9.00;1.00;;;;;;2238063;62;1989;-89
2021/03/21 19:16:29;111665.00;0.37;193.70;0.00;0.00;0.62;;;;;9.00;1.00;;;;;;2234201;62;986;-89
2021/03/21 19:18:55;36021.00;0.12;63.00;0.00;0.00;0.62;;;;;8.90;1.00;;;;;;2230986;62;969;-90
2021/03/21 19:21:23;153268.00;0.51;265.44;0.00;0.00;0.62;;;;;8.90;1.00;;;;;;2233376;62;1409;-89
2021/03/21 19:23:51;89098.00;0.30;154.75;0.00;0.00;0.62;;;;;8.90;1.00;;;;;;2229509;62;1056;-89
2021/03/21 19:26:18;243280.00;0.81;420.39;0.00;0.00;0.62;;;;;9.00;1.00;;;;;;2226431;62;925;-89
2021/03/21 19:28:46;206315.00;0.69;356.79;0.00;0.00;0.62;;;;;8.70;1.00;;;;;;2232964;62;1045;-89
2021/03/21 19:31:12;177140.00;0.59;306.56;0.00;0.00;0.62;;;;;8.30;1.00;;;;;;2226702;62;1433;-88
2021/03/21 19:33:39;123607.00;0.41;214.30;0.00;0.00;0.62;;;;;8.00;1.00;;;;;;2236828;62;1038;-89
2021/03/21 19:36:07;63138.00;0.21;109.90;0.00;0.00;0.62;;;;;7.70;1.00;;;;;;2236624;62;2015;-89
2021/03/21 19:38:34;120969.00;0.40;209.75;0.00;0.00;0.62;;;;;7.90;1.00;;;;;;2233507;62;980;-89
2021/03/21 19:41:04;161562.00;0.54;279.73;0.00;0.00;0.62;;;;;8.00;1.00;;;;;;2240596;61;1396;-89
2021/03/21 19:43:34;235144.00;0.78;406.40;13448.00;0.04;23.92;;;;;7.90;1.00;;;;;;2245309;61;1059;-90
2021/03/21 19:46:02;157873.00;0.53;273.37;0.00;0.00;0.62;;;;;7.80;1.00;;;;;;2242037;61;1057;-88
2021/03/21 19:48:31;67219.00;0.22;116.95;0.00;0.00;0.62;;;;;8.10;1.00;;;;;;2245175;61;1027;-89
2021/03/21 19:50:58;52290.00;0.17;91.15;0.00;0.00;0.62;;;;;8.70;1.00;;;;;;2236602;62;1480;-92
2021/03/21 19:53:28;166892.00;0.56;288.91;0.00;0.00;0.62;;;;;8.50;1.00;;;;;;2238415;61;955;-89
2021/03/21 19:55:55;242815.00;0.81;419.59;0.00;0.00;0.62;;;;;8.50;1.00;;;;;;2232762;62;2011;-88
2021/03/21 19:58:22;108671.00;0.36;188.54;0.00;0.00;0.62;;;;;9.00;1.00;;;;;;2226414;62;990;-88
2021/03/21 20:00:50;45915.00;0.15;80.12;0.00;0.00;0.62;;;;;9.40;1.00;;;;;;2226249;62;1348;-88
2021/03/21 20:03:19;27435.00;0.09;48.14;0.00;0.00;0.62;;;;;9.70;1.00;;;;;;2226237;62;1058;-88
2021/03/21 20:05:46;58690.00;0.20;102.21;0.00;0.00;0.62;;;;;9.60;1.00;;;;;;2227799;61;1003;-89
2021/03/21 20:08:13;22382.00;0.07;39.39;0.00;0.00;0.62;;;;;9.80;1.00;;;;;;2247681;61;1017;-88
2021/03/21 20:10:39;283070.00;0.94;488.82;23272.00;0.08;40.94;;;;;10.40;1.00;;;;;;2249805;61;1362;-86
2021/03/21 20:13:07;157003.00;0.52;271.88;0.00;0.00;0.62;;;;;10.90;1.00;;;;;;2261271;61;1160;-86
2021/03/21 20:15:36;51304.00;0.17;89.44;0.00;0.00;0.62;;;;;11.00;1.00;;;;;;2268252;61;2004;-86
2021/03/21 20:18:04;33578.00;0.11;58.78;0.00;0.00;0.62;;;;;11.00;1.00;;;;;;2268629;61;1180;-87
2021/03/21 20:20:31;33593.00;0.11;58.80;0.00;0.00;0.62;;;;;11.10;1.00;;;;;;2268518;61;1827;-85
2021/03/21 20:22:58;163008.00;0.54;282.22;57471.00;0.19;100.10;;;;;11.20;1.00;;;;;;2268573;61;1018;-86
2021/03/21 20:25:32;224559.00;0.75;388.19;0.00;0.00;0.62;;;;;11.40;1.00;;;;;;2268511;61;1053;-87
2021/03/21 20:27:58;40148.00;0.13;70.14;0.00;0.00;0.62;;;;;11.30;1.00;;;;;;2267874;61;1130;-84
2021/03/21 20:30:38;33098.00;0.11;57.95;0.00;0.00;0.62;;;;;11.20;1.00;;;;;;2258124;61;1378;-87
2021/03/21 20:33:06;364721.00;1.22;629.16;72014.00;0.24;125.24;;;;;11.40;1.00;;;;;;2264764;61;1019;-89
2021/03/21 20:35:39;482094.00;1.61;831.00;73471.00;0.24;127.76;;;;;11.00;1.00;;;;;;2262844;61;1932;-88
2021/03/21 22:00:43;1147007.00;3.82;1994.70;30077.00;0.10;52.72;;;;;9.50;1.00;;;;;;2258201;61;1328;-88
2021/03/21 22:03:12;436544.00;1.46;752.64;0.00;0.00;0.62;;;;;9.50;1.00;;;;;;2256564;61;1182;-91
2021/03/21 22:05:39;222342.00;0.74;384.37;0.00;0.00;0.62;;;;;9.20;1.00;;;;;;2256612;61;1045;-91
2021/03/21 22:08:06;470775.00;1.57;811.52;32190.00;0.11;56.37;;;;;9.10;1.00;;;;;;2244129;61;1021;-90
2021/03/21 22:10:36;35727.00;0.12;62.49;0.00;0.00;0.62;;;;;9.00;1.00;;;;;;2244034;61;1484;-89
2021/03/21 22:13:04;336514.00;1.12;580.68;97683.00;0.33;169.57;;;;;9.10;1.00;;;;;;2244061;61;1038;-87
2021/03/21 22:15:34;80586.00;0.27;140.05;0.00;0.00;0.62;;;;;9.40;1.00;;;;;;2240138;62;2005;-90
2021/03/21 22:18:02;288589.00;0.96;498.30;0.00;0.00;0.62;;;;;9.60;1.00;;;;;;2232322;62;1025;-89
2021/03/21 22:20:34;407700.00;1.36;703.04;30179.00;0.10;52.89;;;;;9.50;1.00;;;;;;2232345;62;1402;-86
2021/03/21 22:23:01;286436.00;0.95;494.60;0.00;0.00;0.62;;;;;9.40;1.00;;;;;;2232076;62;1727;-88
2021/03/21 22:25:29;403127.00;1.34;695.18;376.00;0.00;1.27;;;;;9.90;1.00;;;;;;2227460;62;961;-86
2021/03/21 22:27:58;273632.00;0.91;472.59;0.00;0.00;0.62;;;;;10.00;1.00;;;;;;2240135;62;967;-86
2021/03/21 22:30:28;99922.00;0.33;173.44;0.00;0.00;0.62;;;;;10.00;1.00;;;;;;2232167;62;1362;-87
2021/03/21 22:33:01;311953.00;1.04;538.47;0.00;0.00;0.62;;;;;9.80;1.00;;;;;;2230161;62;963;-87
2021/03/21 22:35:32;441868.00;1.47;761.80;0.00;0.00;0.62;;;;;9.50;1.00;;;;;;2239136;61;2004;-91
2021/03/21 22:38:10;86363.00;0.29;150.03;0.00;0.00;0.62;;;;;9.20;1.00;;;;;;2241465;61;1039;-86
2021/03/21 22:40:40;568772.00;1.90;980.33;0.00;0.00;0.62;;;;;9.60;1.00;;;;;;2239957;62;1498;-87
2021/03/21 22:43:07;281291.00;0.94;485.76;0.00;0.00;0.62;;;;;9.70;1.00;;;;;;2239992;62;1048;-88
2021/03/21 22:45:37;217889.00;0.73;376.71;32522.00;0.11;56.95;;;;;9.30;1.00;;;;;;2236143;62;958;-88
2021/03/21 22:48:05;320325.00;1.07;552.86;0.00;0.00;0.62;;;;;8.90;1.00;;;;;;2224436;62;1029;-89
2021/03/21 22:50:33;857433.00;2.86;1481.48;190419.00;0.63;329.43;;;;;9.40;1.00;;;;;;2227047;62;1391;-90
2021/03/21 22:53:00;222769.00;0.74;385.11;98499.00;0.33;170.98;;;;;9.20;1.00;;;;;;2225660;62;1021;-88
2021/03/21 22:55:27;226778.00;0.76;392.01;0.00;0.00;0.62;;;;;8.90;1.00;;;;;;2232120;62;1919;-86
2021/03/21 22:57:53;457119.00;1.52;788.03;0.00;0.00;0.62;;;;;9.00;1.00;;;;;;2232468;62;1059;-87
2021/03/21 23:00:24;462517.00;1.54;797.31;54391.00;0.18;94.78;;;;;8.60;1.00;;;;;;2228013;62;1410;-88
2021/03/21 23:02:54;155131.00;0.52;268.65;0.00;0.00;0.62;;;;;8.40;1.00;;;;;;2225700;62;922;-86
2021/03/21 23:05:24;615099.00;2.05;1060.30;14176.00;0.05;25.18;;;;;8.20;1.00;;;;;;2233568;62;1006;-87
2021/03/21 23:07:52;191765.00;0.64;331.75;0.00;0.00;0.62;;;;;8.30;1.00;;;;;;2236584;62;1059;-86
2021/03/21 23:10:24;197315.00;0.66;341.30;20823.00;0.07;36.70;;;;;7.80;1.00;;;;;;2239929;62;1412;-87
2021/03/21 23:12:50;328115.00;1.09;566.25;0.00;0.00;0.62;;;;;7.50;1.00;;;;;;2235855;62;1716;-85
2021/03/21 23:15:19;341836.00;1.14;589.83;15384.00;0.05;27.28;;;;;7.60;1.00;;;;;;2235968;62;2007;-85
2021/03/21 23:17:46;206471.00;0.69;357.06;51964.00;0.17;90.58;;;;;7.70;1.00;;;;;;2237034;62;1028;-86
2021/03/21 23:20:17;337089.00;1.12;581.67;0.00;0.00;0.62;;;;;7.90;1.00;;;;;;2240812;62;1324;-87
2021/03/21 23:22:43;635885.00;2.12;1096.22;120247.00;0.40;208.51;;;;;7.80;1.00;;;;;;2246826;61;1053;-86
2021/03/21 23:25:12;586306.00;1.95;1010.58;47687.00;0.16;83.19;;;;;7.80;1.00;;;;;;2244620;61;1075;-87
2021/03/21 23:27:38;310822.00;1.04;536.52;0.00;0.00;0.62;;;;;8.30;1.00;;;;;;2240072;62;998;-88
2021/03/21 23:30:08;306055.00;1.02;528.33;50935.00;0.17;88.80;;;;;8.60;1.00;;;;;;2240547;62;1405;-88
2021/03/21 23:32:34;240200.00;0.80;415.10;0.00;0.00;0.62;;;;;8.30;1.00;;;;;;2243981;61;990;-89
2021/03/21 23:35:01;276209.00;0.92;477.02;0.00;0.00;0.62;;;;;8.30;1.00;;;;;;2243856;61;1920;-86
2021/03/21 23:37:27;604186.00;2.01;1041.45;74257.00;0.25;129.12;;;;;8.00;1.00;;;;;;2244259;61;1078;-86
2021/03/21 23:39:54;353979.00;1.18;610.70;0.00;0.00;0.62;;;;;7.80;1.00;;;;;;2244474;61;1409;-89
2021/03/21 23:42:22;188791.00;0.63;326.63;0.00;0.00;0.62;;;;;7.80;1.00;;;;;;2236512;62;1165;-86
2021/03/21 23:44:48;568620.00;1.90;980.07;15483.00;0.05;27.45;;;;;7.90;1.00;;;;;;2238254;62;1016;-87
2021/03/21 23:47:15;253448.00;0.84;437.88;69803.00;0.23;121.42;;;;;8.20;1.00;;;;;;2244518;61;993;-87
2021/03/21 23:49:41;673508.00;2.25;1161.33;30744.00;0.10;53.87;;;;;8.00;1.00;;;;;;2240378;62;1252;-87
2021/03/21 23:52:08;629369.00;2.10;1084.96;0.00;0.00;0.62;;;;;7.70;1.00;;;;;;2240663;61;1026;-87
2021/03/21 23:54:35;418133.00;1.39;720.98;0.00;0.00;0.62;;;;;7.70;1.00;;;;;;2237293;61;1921;-89
2021/03/21 23:57:02;214425.00;0.71;370.75;0.00;0.00;0.62;;;;;7.80;1.00;;;;;;2237280;62;991;-89
2021/03/21 23:59:30;465251.00;1.55;802.02;0.00;0.00;0.62;;;;;7.90;1.00;;;;;;2237001;61;1054;-85
